createdAt,value
2023-02-11T00:00:42.070Z,103491.75
2023-02-11T00:03:08.896Z,103490.97
2023-02-11T00:05:35.485Z,103491.13
2023-02-11T00:08:02.223Z,103489.22
2023-02-11T00:10:28.768Z,103491.03
2023-02-11T00:12:55.919Z,103499.75
2023-02-11T00:15:22.672Z,103490.25
2023-02-11T00:17:49.152Z,103488.50
2023-02-11T00:20:15.794Z,103484.28
2023-02-11T00:22:42.285Z,103469.09
2023-02-11T00:25:08.756Z,103476.25
2023-02-11T00:27:37.163Z,103474.50
2023-02-11T00:30:05.295Z,103474.66
2023-02-11T00:32:32.109Z,103482.63
2023-02-11T00:34:58.692Z,103481.41
2023-02-11T00:37:25.270Z,103477.13
2023-02-11T00:39:51.785Z,103470.94
2023-02-11T00:42:18.396Z,103471.66
2023-02-11T00:44:44.873Z,103473.47
2023-02-11T00:47:11.728Z,103468.13
2023-02-11T00:49:40.304Z,103464.56
2023-02-11T00:52:07.313Z,103461.22
2023-02-11T00:54:33.852Z,103460.38
2023-02-11T00:57:00.357Z,103468.41
2023-02-11T00:59:27.093Z,103475.81
2023-02-11T01:01:53.715Z,103474.91
2023-02-11T01:04:20.313Z,103468.66
2023-02-11T01:06:46.850Z,103460.44
2023-02-11T01:09:13.375Z,103460.38
2023-02-11T01:11:39.959Z,103471.81
2023-02-11T01:14:06.511Z,103472.84
2023-02-11T01:16:33.098Z,103470.16
2023-02-11T01:18:59.630Z,103469.25
2023-02-11T01:21:26.480Z,103468.94
2023-02-11T01:23:53.157Z,103472.59
2023-02-11T01:26:19.849Z,103473.41
2023-02-11T01:28:46.364Z,103469.00
2023-02-11T01:31:12.956Z,103463.53
2023-02-11T01:33:40.004Z,103465.44
2023-02-11T01:36:07.688Z,103472.69
2023-02-11T01:38:34.983Z,103458.63
2023-02-11T01:41:08.255Z,103456.09
2023-02-11T01:43:40.045Z,103458.44
2023-02-11T01:46:26.801Z,103463.44
2023-02-11T01:48:56.721Z,103466.22
2023-02-11T01:51:44.670Z,103472.75
2023-02-11T01:54:32.266Z,103464.91
2023-02-11T01:57:18.175Z,103462.41
2023-02-11T01:59:47.825Z,103466.00
2023-02-11T02:02:17.922Z,103443.66
2023-02-11T02:04:55.707Z,103440.31
2023-02-11T02:07:32.561Z,103447.06
2023-02-11T02:10:04.550Z,103458.13
2023-02-11T02:12:31.068Z,103455.50
2023-02-11T02:15:29.941Z,103459.78
2023-02-11T02:18:08.013Z,103462.59
2023-02-11T02:24:22.313Z,103445.66
2023-02-11T02:27:07.074Z,103443.66
2023-02-11T02:29:51.665Z,103453.59
2023-02-11T02:32:38.961Z,103450.81
2023-02-11T02:35:18.428Z,103451.84
2023-02-11T02:37:51.986Z,103447.94
2023-02-11T02:40:25.894Z,103460.13
2023-02-11T02:42:53.202Z,103462.28
2023-02-11T02:45:19.851Z,103463.38
2023-02-11T02:47:46.423Z,103472.34
2023-02-11T02:50:14.192Z,103477.94
2023-02-11T02:52:58.524Z,103468.69
2023-02-11T02:55:35.193Z,103478.50
2023-02-11T02:58:47.388Z,103474.91
2023-02-11T03:01:35.736Z,103473.97
2023-02-11T03:04:29.652Z,103476.91
2023-02-11T03:07:14.876Z,103473.81
2023-02-11T03:10:07.646Z,103453.91
2023-02-11T03:12:35.335Z,103449.53
2023-02-11T03:15:03.528Z,103454.06
2023-02-11T03:17:31.018Z,103460.28
2023-02-11T03:19:59.093Z,103467.44
2023-02-11T03:22:30.975Z,103464.50
2023-02-11T03:24:57.689Z,103462.44
2023-02-11T03:27:33.807Z,103464.97
2023-02-11T03:30:13.775Z,103463.13
2023-02-11T03:32:52.172Z,103447.06
2023-02-11T03:35:28.374Z,103456.13
2023-02-11T03:38:02.218Z,103447.00
2023-02-11T03:40:32.647Z,103450.41
2023-02-11T03:43:01.682Z,103453.50
2023-02-11T03:45:28.638Z,103451.59
2023-02-11T03:48:00.055Z,103452.56
2023-02-11T03:50:27.073Z,103455.25
2023-02-11T03:52:54.204Z,103445.41
2023-02-11T03:55:21.718Z,103439.53
2023-02-11T03:57:48.411Z,103426.25
2023-02-11T04:00:15.398Z,103428.84
2023-02-11T04:02:42.867Z,103426.69
2023-02-11T04:05:14.328Z,103431.88
2023-02-11T04:07:41.060Z,103441.81
2023-02-11T04:10:08.246Z,103440.53
2023-02-11T04:12:34.709Z,103443.47
2023-02-11T04:15:01.206Z,103448.59
2023-02-11T04:17:27.717Z,103452.16
2023-02-11T04:19:54.510Z,103442.63
2023-02-11T04:22:21.026Z,103441.72
2023-02-11T04:24:47.556Z,103448.88
2023-02-11T04:27:14.176Z,103446.84
2023-02-11T04:29:40.690Z,103452.09
2023-02-11T04:32:07.621Z,103453.81
2023-02-11T04:34:34.160Z,103460.22
2023-02-11T04:37:00.758Z,103459.41
2023-02-11T04:39:27.475Z,103450.72
2023-02-11T04:41:53.982Z,103449.84
2023-02-11T04:44:20.533Z,103445.22
2023-02-11T04:46:47.144Z,103447.13
2023-02-11T04:49:14.968Z,103452.00
2023-02-11T04:51:41.672Z,103448.66
2023-02-11T04:54:08.251Z,103452.16
2023-02-11T04:56:34.850Z,103451.06
2023-02-11T04:59:01.597Z,103461.38
2023-02-11T05:01:28.172Z,103453.38
2023-02-11T05:03:54.695Z,103451.47
2023-02-11T05:06:21.198Z,103442.44
2023-02-11T05:08:47.694Z,103437.84
2023-02-11T05:11:19.809Z,103434.03
2023-02-11T05:13:47.030Z,103434.97
2023-02-11T05:16:14.432Z,103432.88
2023-02-11T05:18:42.253Z,103431.13
2023-02-11T05:21:10.527Z,103437.50
2023-02-11T05:23:37.379Z,103444.66
2023-02-11T05:26:04.141Z,103447.63
2023-02-11T05:28:30.763Z,103437.75
2023-02-11T05:30:57.389Z,103447.78
2023-02-11T05:33:24.309Z,103451.38
2023-02-11T05:35:51.110Z,103446.09
2023-02-11T05:38:17.794Z,103457.06
2023-02-11T05:40:44.630Z,103461.47
2023-02-11T05:43:11.223Z,103465.13
2023-02-11T05:45:37.741Z,103461.88
2023-02-11T05:48:04.557Z,103476.50
2023-02-11T05:50:31.119Z,103477.19
2023-02-11T05:52:57.668Z,103471.78
2023-02-11T05:55:24.375Z,103463.69
2023-02-11T05:57:50.874Z,103460.41
2023-02-11T06:00:17.912Z,103464.09
2023-02-11T06:02:44.586Z,103455.91
2023-02-11T06:05:11.106Z,103452.47
2023-02-11T06:07:37.613Z,103455.44
2023-02-11T06:10:04.488Z,103449.78
2023-02-11T06:12:30.977Z,103456.84
2023-02-11T06:14:57.504Z,103462.25
2023-02-11T06:17:25.331Z,103463.91
2023-02-11T06:19:51.887Z,103462.25
2023-02-11T06:22:18.387Z,103456.84
2023-02-11T06:25:00.412Z,103461.06
2023-02-11T06:27:27.771Z,103468.22
2023-02-11T06:29:54.339Z,103464.81
2023-02-11T06:32:42.327Z,103470.47
2023-02-11T06:35:09.989Z,103461.53
2023-02-11T06:37:37.872Z,103467.91
2023-02-11T06:40:04.716Z,103486.84
2023-02-11T06:42:31.407Z,103474.19
2023-02-11T06:44:57.972Z,103480.38
2023-02-11T06:47:25.129Z,103482.03
2023-02-11T06:49:51.687Z,103475.63
2023-02-11T06:52:18.208Z,103485.66
2023-02-11T06:54:44.769Z,103482.13
2023-02-11T06:57:11.363Z,103492.81
2023-02-11T06:59:37.870Z,103491.84
2023-02-11T07:02:04.471Z,103488.19
2023-02-11T07:04:30.969Z,103494.47
2023-02-11T07:06:57.446Z,103492.56
2023-02-11T07:09:24.406Z,103496.13
2023-02-11T07:11:50.976Z,103490.09
2023-02-11T07:14:17.539Z,103493.66
2023-02-11T07:16:44.118Z,103496.47
2023-02-11T07:19:10.970Z,103496.22
2023-02-11T07:21:37.809Z,103497.88
2023-02-11T07:24:10.889Z,103497.84
2023-02-11T07:26:37.966Z,103502.34
2023-02-11T07:29:04.643Z,103503.06
2023-02-11T07:31:31.414Z,103492.34
2023-02-11T07:34:00.644Z,103499.41
2023-02-11T07:36:28.982Z,103504.66
2023-02-11T07:38:55.587Z,103499.09
2023-02-11T07:41:25.080Z,103514.53
2023-02-11T07:43:52.200Z,103518.19
2023-02-11T07:46:23.939Z,103525.19
2023-02-11T07:48:50.519Z,103527.75
2023-02-11T07:51:22.521Z,103535.63
2023-02-11T07:53:49.100Z,103537.22
2023-02-11T07:56:16.768Z,103539.84
2023-02-11T07:58:43.896Z,103538.66
2023-02-11T08:01:13.726Z,103532.19
2023-02-11T08:03:42.791Z,103537.81
2023-02-11T08:06:12.270Z,103536.16
2023-02-11T08:08:38.993Z,103538.91
2023-02-11T08:11:17.100Z,103541.78
2023-02-11T08:13:44.371Z,103544.31
2023-02-11T08:16:22.606Z,103544.94
2023-02-11T08:18:50.164Z,103542.34
2023-02-11T08:21:16.837Z,103544.78
2023-02-11T08:23:44.775Z,103547.19
2023-02-11T08:26:17.084Z,103555.22
2023-02-11T08:28:45.262Z,103552.16
2023-02-11T08:31:18.012Z,103555.75
2023-02-11T08:33:44.962Z,103559.06
2023-02-11T08:36:13.965Z,103560.78
2023-02-11T08:38:40.747Z,103562.53
2023-02-11T08:41:07.954Z,103566.13
2023-02-11T08:43:35.335Z,103568.78
2023-02-11T08:46:02.503Z,103569.56
2023-02-11T08:48:29.764Z,103575.50
2023-02-11T08:50:56.876Z,103572.63
2023-02-11T08:53:23.712Z,103562.16
2023-02-11T08:55:51.249Z,103563.13
2023-02-11T08:58:19.263Z,103575.97
2023-02-11T09:00:46.582Z,103577.91
2023-02-11T09:03:14.233Z,103583.84
2023-02-11T09:05:47.952Z,103572.75
2023-02-11T09:08:14.643Z,103572.94
2023-02-11T09:10:41.361Z,103566.97
2023-02-11T09:13:08.330Z,103573.47
2023-02-11T09:15:35.338Z,103574.59
2023-02-11T09:18:03.885Z,103571.06
2023-02-11T09:20:30.816Z,103571.88
2023-02-11T09:22:58.080Z,103567.41
2023-02-11T09:25:24.940Z,103566.16
2023-02-11T09:27:52.331Z,103572.56
2023-02-11T09:30:18.904Z,103564.88
2023-02-11T09:32:45.474Z,103569.22
2023-02-11T09:35:11.985Z,103560.75
2023-02-11T09:37:38.473Z,103575.06
2023-02-11T09:40:05.547Z,103569.91
2023-02-11T09:42:40.587Z,103573.16
2023-02-11T09:45:15.840Z,103573.94
2023-02-11T09:47:46.952Z,103569.38
2023-02-11T09:50:16.511Z,103573.06
2023-02-11T09:53:06.832Z,103567.97
2023-02-11T09:55:37.984Z,103568.66
2023-02-11T09:58:11.010Z,103566.09
2023-02-11T10:00:42.077Z,103564.94
2023-02-11T10:03:11.675Z,103557.94
2023-02-11T10:05:51.045Z,103561.16
2023-02-11T10:08:26.124Z,103567.28
2023-02-11T10:11:40.820Z,103573.09
2023-02-11T10:14:40.678Z,103579.00
2023-02-11T10:17:31.605Z,103578.56
2023-02-11T10:20:28.909Z,103568.97
2023-02-11T10:22:58.802Z,103579.47
2023-02-11T10:25:45.690Z,103588.84
2023-02-11T10:28:20.332Z,103584.91
2023-02-11T10:30:58.350Z,103598.94
2023-02-11T10:33:24.827Z,103603.16
2023-02-11T10:35:51.470Z,103609.44
2023-02-11T10:38:18.096Z,103604.78
2023-02-11T10:40:44.667Z,103609.31
2023-02-11T10:43:25.867Z,103611.16
2023-02-11T10:45:53.828Z,103609.31
2023-02-11T10:48:39.362Z,103613.09
2023-02-11T10:51:33.570Z,103607.97
2023-02-11T10:54:13.812Z,103605.91
2023-02-11T10:56:50.244Z,103608.13
2023-02-11T10:59:46.590Z,103619.28
2023-02-11T11:02:32.201Z,103612.81
2023-02-11T11:04:59.189Z,103613.28
2023-02-11T11:07:30.108Z,103620.97
2023-02-11T11:10:29.203Z,103622.00
2023-02-11T11:12:55.901Z,103620.47
2023-02-11T11:15:25.019Z,103622.28
2023-02-11T11:18:20.943Z,103622.88
2023-02-11T11:21:00.228Z,103620.47
2023-02-11T11:23:28.533Z,103630.28
2023-02-11T11:26:05.952Z,103621.34
2023-02-11T11:28:54.647Z,103612.22
2023-02-11T11:31:28.179Z,103619.22
2023-02-11T11:33:56.901Z,103621.94
2023-02-11T11:36:32.016Z,103619.22
2023-02-11T11:39:02.061Z,103626.28
2023-02-11T11:41:30.943Z,103629.66
2023-02-11T11:44:19.203Z,103623.25
2023-02-11T11:46:46.536Z,103611.84
2023-02-11T11:49:26.426Z,103622.13
2023-02-11T11:52:34.664Z,103616.81
2023-02-11T11:55:16.388Z,103620.50
2023-02-11T11:57:43.000Z,103610.28
2023-02-11T12:00:32.532Z,103613.75
2023-02-11T12:03:05.211Z,103616.28
2023-02-11T12:05:36.396Z,103607.47
2023-02-11T12:08:28.984Z,103608.06
2023-02-11T12:11:07.918Z,103607.28
2023-02-11T12:13:46.150Z,103610.31
2023-02-11T12:16:34.683Z,103623.53
2023-02-11T12:19:12.051Z,103632.66
2023-02-11T12:21:55.508Z,103632.00
2023-02-11T12:24:31.684Z,103629.84
2023-02-11T12:27:10.856Z,103619.56
2023-02-11T12:29:40.617Z,103623.31
2023-02-11T12:32:43.928Z,103619.66
2023-02-11T12:35:25.884Z,103614.78
2023-02-11T12:38:18.899Z,103620.34
2023-02-11T12:41:10.386Z,103621.03
2023-02-11T12:43:41.204Z,103612.44
2023-02-11T12:46:32.559Z,103620.53
2023-02-11T12:49:26.628Z,103612.72
2023-02-11T12:52:02.991Z,103613.56
2023-02-11T12:54:40.474Z,103606.31
2023-02-11T12:57:15.234Z,103607.66
2023-02-11T12:59:56.462Z,103612.56
2023-02-11T13:02:49.660Z,103609.72
2023-02-11T13:05:55.009Z,103611.16
2023-02-11T13:08:25.712Z,103597.59
2023-02-11T13:11:04.988Z,103605.88
2023-02-11T13:13:39.521Z,103605.50
2023-02-11T13:16:13.483Z,103608.34
2023-02-11T13:18:44.839Z,103605.88
2023-02-11T13:21:17.771Z,103595.31
2023-02-11T13:23:54.981Z,103599.59
2023-02-11T13:26:29.590Z,103599.91
2023-02-11T13:29:14.321Z,103594.34
2023-02-11T13:31:40.941Z,103593.72
2023-02-11T13:34:43.012Z,103589.34
2023-02-11T13:37:19.611Z,103598.31
2023-02-11T13:40:00.645Z,103594.59
2023-02-11T13:42:28.422Z,103588.78
2023-02-11T13:44:55.354Z,103584.31
2023-02-11T13:47:35.228Z,103578.72
2023-02-11T13:50:04.976Z,103584.75
2023-02-11T13:52:37.434Z,103587.16
2023-02-11T13:55:21.489Z,103587.34
2023-02-11T13:58:07.915Z,103580.06
2023-02-11T14:00:34.598Z,103579.56
2023-02-11T14:03:31.758Z,103579.47
2023-02-11T14:06:46.698Z,103580.16
2023-02-11T14:09:13.130Z,103579.56
2023-02-11T14:11:55.257Z,103584.38
2023-02-11T14:14:26.941Z,103586.91
2023-02-11T14:17:02.640Z,103582.31
2023-02-11T14:19:43.901Z,103581.22
2023-02-11T14:22:10.416Z,103582.44
2023-02-11T14:24:36.856Z,103586.13
2023-02-11T14:27:13.797Z,103583.53
2023-02-11T14:29:58.818Z,103586.31
2023-02-11T14:32:31.191Z,103581.91
2023-02-11T14:35:18.472Z,103585.72
2023-02-11T14:38:26.674Z,103586.03
2023-02-11T14:41:10.913Z,103592.91
2023-02-11T14:43:41.357Z,103588.56
2023-02-11T14:46:08.849Z,103590.38
2023-02-11T14:48:37.340Z,103583.63
2023-02-11T14:51:10.668Z,103585.97
2023-02-11T14:53:38.259Z,103593.66
2023-02-11T14:56:18.438Z,103591.41
2023-02-11T14:58:49.368Z,103602.41
2023-02-11T15:01:27.781Z,103604.97
2023-02-11T15:04:00.496Z,103602.09
2023-02-11T15:06:32.930Z,103604.03
2023-02-11T15:09:18.766Z,103607.72
2023-02-11T15:11:47.716Z,103605.91
2023-02-11T15:14:17.310Z,103605.78
2023-02-11T15:16:45.276Z,103603.47
2023-02-11T15:19:23.575Z,103604.81
2023-02-11T15:21:50.960Z,103598.91
2023-02-11T15:24:24.277Z,103611.66
2023-02-11T15:26:58.463Z,103615.34
2023-02-11T15:29:26.980Z,103617.94
2023-02-11T15:32:07.900Z,103619.31
2023-02-11T15:34:34.889Z,103612.22
2023-02-11T15:37:03.313Z,103620.59
2023-02-11T15:39:36.806Z,103614.56
2023-02-11T15:42:29.060Z,103624.47
2023-02-11T15:45:29.109Z,103618.34
2023-02-11T15:48:05.436Z,103628.16
2023-02-11T15:50:35.127Z,103624.16
2023-02-11T15:53:24.442Z,103619.50
2023-02-11T15:55:53.167Z,103622.53
2023-02-11T15:58:20.123Z,103623.41
2023-02-11T16:00:49.066Z,103616.97
2023-02-11T16:03:24.349Z,103617.88
2023-02-11T16:05:51.159Z,103621.84
2023-02-11T16:08:22.253Z,103615.75
2023-02-11T16:11:02.991Z,103620.59
2023-02-11T16:13:33.746Z,103625.84
2023-02-11T16:16:04.782Z,103635.91
2023-02-11T16:18:38.628Z,103633.50
2023-02-11T16:21:14.258Z,103642.72
2023-02-11T16:23:42.478Z,103643.38
2023-02-11T16:26:31.984Z,103648.91
2023-02-11T16:29:11.961Z,103642.47
2023-02-11T16:31:41.329Z,103640.75
2023-02-11T16:34:17.773Z,103639.69
2023-02-11T16:36:45.088Z,103641.97
2023-02-11T16:39:11.658Z,103657.56
2023-02-11T16:41:38.200Z,103657.50
2023-02-11T16:44:05.082Z,103662.94
2023-02-11T16:46:32.794Z,103658.63
2023-02-11T16:49:04.818Z,103657.06
2023-02-11T16:51:31.470Z,103664.63
2023-02-11T16:53:57.984Z,103663.06
2023-02-11T16:56:24.779Z,103667.53
2023-02-11T16:58:51.308Z,103661.22
2023-02-11T17:01:17.966Z,103677.69
2023-02-11T17:03:45.643Z,103685.41
2023-02-11T17:06:13.213Z,103686.91
2023-02-11T17:08:40.231Z,103682.34
2023-02-11T17:11:06.736Z,103696.03
2023-02-11T17:13:33.713Z,103698.63
2023-02-11T17:16:00.336Z,103691.28
2023-02-11T17:18:26.979Z,103693.38
2023-02-11T17:20:53.725Z,103696.19
2023-02-11T17:23:20.275Z,103683.47
2023-02-11T17:25:47.088Z,103693.47
2023-02-11T17:28:13.661Z,103699.88
2023-02-11T17:30:41.874Z,103693.38
2023-02-11T17:33:08.416Z,103700.66
2023-02-11T17:35:34.922Z,103698.81
2023-02-11T17:38:01.631Z,103702.69
2023-02-11T17:40:28.196Z,103702.88
2023-02-11T17:42:54.708Z,103711.97
2023-02-11T17:45:22.357Z,103709.16
2023-02-11T17:47:49.516Z,103709.16
2023-02-11T17:50:16.174Z,103716.44
2023-02-11T17:52:42.728Z,103714.69
2023-02-11T17:55:09.472Z,103711.81
2023-02-11T17:57:36.114Z,103723.00
2023-02-11T18:00:04.921Z,103718.72
2023-02-11T18:02:31.404Z,103722.31
2023-02-11T18:04:58.797Z,103728.44
2023-02-11T18:07:26.265Z,103727.47
2023-02-11T18:09:53.216Z,103725.72
2023-02-11T18:12:26.261Z,103730.63
2023-02-11T18:14:58.020Z,103727.84
2023-02-11T18:17:25.458Z,103736.06
2023-02-11T18:19:55.950Z,103739.66
2023-02-11T18:22:22.775Z,103730.72
2023-02-11T18:24:53.988Z,103736.44
2023-02-11T18:27:23.506Z,103736.59
2023-02-11T18:29:50.266Z,103740.00
2023-02-11T18:32:16.813Z,103745.38
2023-02-11T18:34:43.375Z,103745.38
2023-02-11T18:37:10.327Z,103744.38
2023-02-11T18:39:37.160Z,103747.97
2023-02-11T18:42:03.818Z,103749.56
2023-02-11T18:44:30.408Z,103746.66
2023-02-11T18:46:56.929Z,103740.97
2023-02-11T18:49:23.518Z,103744.66
2023-02-11T18:51:50.108Z,103746.59
2023-02-11T18:54:17.062Z,103748.56
2023-02-11T18:56:44.465Z,103755.97
2023-02-11T18:59:11.110Z,103749.75
2023-02-11T19:01:40.003Z,103750.69
2023-02-11T19:04:06.710Z,103745.69
2023-02-11T19:06:36.261Z,103755.88
2023-02-11T19:09:09.843Z,103755.88
2023-02-11T19:11:50.260Z,103756.94
2023-02-11T19:14:24.466Z,103750.06
2023-02-11T19:16:53.488Z,103759.38
2023-02-11T19:19:22.299Z,103755.78
2023-02-11T19:21:48.966Z,103756.47
2023-02-11T19:24:18.870Z,103747.28
2023-02-11T19:26:47.089Z,103746.50
2023-02-11T19:29:13.864Z,103751.81
2023-02-11T19:31:40.557Z,103749.22
2023-02-11T19:34:07.994Z,103746.22
2023-02-11T19:36:34.726Z,103748.84
2023-02-11T19:39:02.132Z,103752.47
2023-02-11T19:41:29.869Z,103760.06
2023-02-11T19:43:56.941Z,103758.31
2023-02-11T19:46:25.004Z,103762.88
2023-02-11T19:48:51.829Z,103766.56
2023-02-11T19:51:19.028Z,103767.31
2023-02-11T19:53:46.113Z,103766.81
2023-02-11T19:56:13.643Z,103773.22
2023-02-11T19:58:40.639Z,103767.59
2023-02-11T20:01:19.620Z,103765.94
2023-02-11T20:03:50.003Z,103767.69
2023-02-11T20:06:19.300Z,103774.00
2023-02-11T20:08:45.836Z,103774.06
2023-02-11T20:11:15.416Z,103775.22
2023-02-11T20:13:42.807Z,103775.41
2023-02-11T20:16:16.566Z,103777.41
2023-02-11T20:18:43.837Z,103778.38
2023-02-11T20:21:12.549Z,103782.84
2023-02-11T20:23:40.420Z,103787.31
2023-02-11T20:26:08.202Z,103796.41
2023-02-11T20:28:35.298Z,103796.41
2023-02-11T20:31:02.460Z,103799.19
2023-02-11T20:33:30.131Z,103808.56
2023-02-11T20:36:01.968Z,103809.38
2023-02-11T20:38:29.055Z,103814.88
2023-02-11T20:40:55.831Z,103808.50
2023-02-11T20:43:22.414Z,103820.38
2023-02-11T20:45:49.529Z,103810.69
2023-02-11T20:48:16.426Z,103810.59
2023-02-11T20:50:43.054Z,103816.00
2023-02-11T20:53:10.833Z,103821.44
2023-02-11T20:55:39.160Z,103823.28
2023-02-11T20:58:07.484Z,103822.41
2023-02-11T21:00:35.624Z,103821.53
2023-02-11T21:03:02.207Z,103828.72
2023-02-11T21:05:29.385Z,103839.47
2023-02-11T21:07:55.993Z,103835.81
2023-02-11T21:10:22.939Z,103827.66
2023-02-11T21:12:49.983Z,103832.38
2023-02-11T21:15:16.809Z,103835.09
2023-02-11T21:17:43.298Z,103833.34
2023-02-11T21:20:10.214Z,103839.81
2023-02-11T21:22:37.059Z,103837.97
2023-02-11T21:25:06.050Z,103839.75
2023-02-11T21:27:33.858Z,103844.28
2023-02-11T21:30:01.365Z,103843.47
2023-02-11T21:32:28.254Z,103858.03
2023-02-11T21:34:54.818Z,103859.75
2023-02-11T21:37:23.138Z,103862.56
2023-02-11T21:39:50.246Z,103861.75
2023-02-11T21:42:16.819Z,103867.44
2023-02-11T21:44:43.357Z,103866.41
2023-02-11T21:47:10.027Z,103868.16
2023-02-11T21:49:36.742Z,103864.56
2023-02-11T21:52:03.377Z,103863.69
2023-02-11T21:54:32.044Z,103870.00
2023-02-11T21:56:59.695Z,103867.19
2023-02-11T21:59:26.173Z,103868.09
2023-02-11T22:01:52.712Z,103873.69
2023-02-11T22:04:19.211Z,103873.59
2023-02-11T22:06:45.794Z,103881.91
2023-02-11T22:09:12.367Z,103877.44
2023-02-11T22:11:38.961Z,103875.84
2023-02-11T22:14:06.809Z,103882.31
2023-02-11T22:16:33.580Z,103871.47
2023-02-11T22:19:02.271Z,103869.63
2023-02-11T22:21:28.801Z,103869.75
2023-02-11T22:23:56.228Z,103875.13
2023-02-11T22:26:24.811Z,103878.72
2023-02-11T22:28:51.840Z,103881.41
2023-02-11T22:31:21.785Z,103881.41
2023-02-11T22:33:48.675Z,103879.66
2023-02-11T22:36:27.334Z,103875.03
2023-02-11T22:38:54.573Z,103868.91
2023-02-11T22:41:21.803Z,103873.47
2023-02-11T22:43:48.388Z,103872.66
2023-02-11T22:46:18.100Z,103873.63
2023-02-11T22:48:44.799Z,103877.28
2023-02-11T22:51:16.924Z,103874.59
2023-02-11T22:53:44.401Z,103868.34
2023-02-11T22:56:15.373Z,103863.03
2023-02-11T22:58:42.604Z,103877.44
2023-02-11T23:01:09.513Z,103876.66
2023-02-11T23:03:36.420Z,103877.53
2023-02-11T23:06:03.156Z,103876.84
2023-02-11T23:08:31.077Z,103884.06
2023-02-11T23:11:07.501Z,103874.19
2023-02-11T23:13:35.853Z,103881.53
2023-02-11T23:16:08.657Z,103889.59
2023-02-11T23:18:37.249Z,103887.84
2023-02-11T23:21:06.677Z,103893.16
2023-02-11T23:23:34.157Z,103890.56
2023-02-11T23:26:01.447Z,103890.59
2023-02-11T23:28:28.255Z,103897.00
2023-02-11T23:30:54.882Z,103899.78
2023-02-11T23:33:22.232Z,103896.22
2023-02-11T23:35:48.833Z,103897.16
2023-02-11T23:38:15.385Z,103899.19
2023-02-11T23:40:42.264Z,103893.66
2023-02-11T23:43:09.080Z,103891.91
2023-02-11T23:45:35.757Z,103893.09
2023-02-11T23:48:02.292Z,103898.53
2023-02-11T23:50:28.846Z,103898.66
2023-02-11T23:52:55.328Z,103889.53
2023-02-11T23:55:21.802Z,103893.09
2023-02-11T23:57:48.262Z,103888.63
